createdAt,value
2023-05-24T04:13:22.374Z,9.21
2023-05-24T04:32:14.971Z,9.69
2023-05-24T04:39:36.258Z,9.91
2023-05-24T04:42:39.236Z,10.08
2023-05-24T04:45:41.823Z,10.21
2023-05-24T04:56:38.982Z,10.06
2023-05-24T04:59:41.597Z,10.17
2023-05-24T05:06:30.355Z,10.41
2023-05-24T05:09:32.922Z,10.38
2023-05-24T05:12:35.467Z,10.68
2023-05-24T05:15:38.016Z,10.99
2023-05-24T05:18:41.067Z,11.37
2023-05-24T05:21:44.979Z,11.73
2023-05-24T05:24:47.519Z,12.47
2023-05-24T05:27:50.059Z,13.19
2023-05-24T05:30:52.629Z,13.56
2023-05-24T05:33:57.715Z,13.46
2023-05-24T05:37:01.743Z,12.46
2023-05-24T05:40:04.977Z,11.98
2023-05-24T05:43:08.518Z,11.61
2023-05-24T05:46:13.348Z,12.16
2023-05-24T05:49:18.432Z,13.22
2023-05-24T05:52:22.331Z,13.01
2023-05-24T05:55:25.299Z,13.19
2023-05-24T05:58:27.821Z,13.45
2023-05-24T06:01:30.381Z,13.87
2023-05-24T06:04:32.976Z,13.12
2023-05-24T06:07:37.531Z,12.47
2023-05-24T06:10:40.321Z,12.14
2023-05-24T06:13:43.062Z,12.17
2023-05-24T06:16:46.040Z,12.91
2023-05-24T06:19:48.667Z,13.04
2023-05-24T06:22:52.578Z,13.48
2023-05-24T06:25:56.139Z,13.97
2023-05-24T06:28:58.692Z,14.78
2023-05-24T06:32:01.390Z,14.52
2023-05-24T06:35:04.628Z,15.61
2023-05-24T06:38:08.593Z,15.01
2023-05-24T06:41:11.171Z,14.79
2023-05-24T06:44:13.872Z,15.52
2023-05-24T06:47:16.606Z,16.37
2023-05-24T06:50:19.549Z,16.28
2023-05-24T06:53:23.409Z,15.03
2023-05-24T06:56:26.918Z,15.07
2023-05-24T06:59:29.569Z,15.44
2023-05-24T07:02:32.159Z,15.69
2023-05-24T07:05:34.940Z,15.01
2023-05-24T07:08:38.856Z,15.83
2023-05-24T07:11:42.054Z,16.69
2023-05-24T07:14:44.697Z,17.36
2023-05-24T07:17:48.398Z,17.25
2023-05-24T07:20:51.068Z,16.31
2023-05-24T07:23:55.047Z,16.53
2023-05-24T07:26:57.816Z,16.25
2023-05-24T07:30:00.683Z,16.54
2023-05-24T07:33:03.280Z,16.60
2023-05-24T07:36:06.800Z,16.42
2023-05-24T07:39:11.069Z,15.02
2023-05-24T07:42:13.614Z,14.70
2023-05-24T07:45:16.175Z,14.55
2023-05-24T07:48:18.761Z,14.36
2023-05-24T07:51:21.656Z,15.07
2023-05-24T07:54:25.593Z,15.92
2023-05-24T07:57:28.567Z,16.33
2023-05-24T08:00:31.231Z,16.49
2023-05-24T08:03:36.845Z,17.10
2023-05-24T08:06:39.543Z,16.77
2023-05-24T08:09:43.907Z,16.37
2023-05-24T08:12:46.519Z,17.12
2023-05-24T08:15:49.057Z,18.09
2023-05-24T08:18:54.801Z,17.09
2023-05-24T08:22:04.560Z,17.05
2023-05-24T08:25:09.597Z,16.60
2023-05-24T08:28:12.189Z,16.71
2023-05-24T08:31:15.131Z,16.94
2023-05-24T08:34:18.355Z,17.10
2023-05-24T08:37:22.595Z,17.37
2023-05-24T08:40:27.067Z,17.03
2023-05-24T08:43:32.756Z,16.91
2023-05-24T08:46:37.679Z,18.23
2023-05-24T08:49:41.426Z,18.03
2023-05-24T08:52:46.407Z,17.36
2023-05-24T08:55:53.200Z,16.47
2023-05-24T08:58:56.198Z,17.80
2023-05-24T09:01:59.178Z,18.07
2023-05-24T09:05:02.350Z,17.91
2023-05-24T09:08:05.621Z,17.61
2023-05-24T09:11:10.137Z,17.66
2023-05-24T09:14:12.858Z,17.76
2023-05-24T09:17:16.045Z,17.82
2023-05-24T09:20:19.788Z,17.49
2023-05-24T09:23:23.609Z,17.10
2023-05-24T09:26:29.171Z,15.90
2023-05-24T09:29:31.671Z,15.29
2023-05-24T09:32:34.305Z,15.46
2023-05-24T09:35:37.244Z,15.94
2023-05-24T09:38:39.804Z,16.20
2023-05-24T09:41:44.646Z,17.28
2023-05-24T09:44:47.336Z,17.50
2023-05-24T09:47:49.903Z,18.00
2023-05-24T09:51:01.242Z,17.77
2023-05-24T09:54:04.367Z,17.71
2023-05-24T09:57:08.590Z,17.64
2023-05-24T10:00:17.834Z,17.59
2023-05-24T10:03:20.733Z,17.18
2023-05-24T10:06:24.019Z,16.64
2023-05-24T10:09:33.706Z,16.39
2023-05-24T10:12:42.904Z,16.33
2023-05-24T10:15:45.969Z,16.18
2023-05-24T10:18:48.584Z,15.91
2023-05-24T10:21:51.978Z,15.74
2023-05-24T10:24:59.589Z,15.94
2023-05-24T10:28:07.410Z,15.96
2023-05-24T10:31:15.043Z,15.43
2023-05-24T10:34:17.935Z,15.63
2023-05-24T10:37:20.633Z,15.86
2023-05-24T10:40:26.077Z,16.07
2023-05-24T10:43:30.644Z,16.25
2023-05-24T10:46:33.883Z,16.45
2023-05-24T10:49:37.046Z,16.09
2023-05-24T10:52:39.624Z,15.92
2023-05-24T10:55:55.867Z,16.45
2023-05-24T10:59:06.233Z,16.77
2023-05-24T11:02:14.944Z,17.74
2023-05-24T11:05:17.848Z,17.96
2023-05-24T11:08:27.536Z,18.23
2023-05-24T11:11:32.078Z,17.36
2023-05-24T11:14:39.542Z,17.38
2023-05-24T11:18:17.709Z,17.54
2023-05-24T11:21:20.904Z,16.71
2023-05-24T11:24:23.659Z,16.38
2023-05-24T11:27:27.001Z,16.60
2023-05-24T11:30:32.679Z,16.84
2023-05-24T11:33:35.255Z,16.47
2023-05-24T11:36:38.056Z,16.10
2023-05-24T11:39:41.187Z,16.03
2023-05-24T11:42:44.786Z,16.01
2023-05-24T11:45:50.851Z,15.73
2023-05-24T11:48:57.972Z,15.85
2023-05-24T11:52:01.658Z,15.86
2023-05-24T11:55:04.648Z,15.55
2023-05-24T11:58:12.619Z,15.79
2023-05-24T12:01:26.222Z,15.68
2023-05-24T12:04:29.321Z,15.89
2023-05-24T12:07:31.975Z,16.26
2023-05-24T12:10:35.823Z,16.40
2023-05-24T12:13:38.574Z,16.42
2023-05-24T12:16:43.395Z,16.16
2023-05-24T12:19:45.942Z,16.17
2023-05-24T12:22:53.152Z,16.56
2023-05-24T12:25:59.373Z,17.12
2023-05-24T12:29:01.908Z,17.24
2023-05-24T12:32:06.567Z,17.36
2023-05-24T12:35:12.022Z,17.80
2023-05-24T12:38:15.319Z,18.03
2023-05-24T12:41:17.887Z,17.95
2023-05-24T12:44:25.558Z,17.93
2023-05-24T12:47:29.507Z,17.45
2023-05-24T12:50:32.502Z,17.06
2023-05-24T12:53:35.093Z,17.05
2023-05-24T12:56:38.153Z,16.86
2023-05-24T12:59:40.819Z,16.93
2023-05-24T13:02:44.714Z,17.04
2023-05-24T13:05:47.483Z,16.78
2023-05-24T13:08:50.349Z,16.66
2023-05-24T13:11:54.055Z,16.89
2023-05-24T13:14:56.825Z,16.84
2023-05-24T13:18:00.785Z,16.55
2023-05-24T13:21:05.378Z,16.64
2023-05-24T13:24:08.690Z,16.54
2023-05-24T13:27:11.214Z,16.40
2023-05-24T13:30:14.304Z,16.64
2023-05-24T13:33:18.283Z,16.61
2023-05-24T13:36:20.958Z,16.64
2023-05-24T13:39:23.964Z,16.69
2023-05-24T13:42:26.547Z,17.03
2023-05-24T13:45:30.302Z,17.28
2023-05-24T13:48:34.944Z,17.66
2023-05-24T13:51:37.972Z,17.78
2023-05-24T13:54:40.537Z,17.83
2023-05-24T13:57:51.800Z,17.83
2023-05-24T14:00:54.665Z,17.56
2023-05-24T14:03:58.606Z,17.75
2023-05-24T14:07:01.250Z,17.47
2023-05-24T14:10:03.862Z,17.08
2023-05-24T14:16:13.396Z,16.59
2023-05-24T14:19:17.603Z,16.61
2023-05-24T14:22:20.239Z,16.53
2023-05-24T14:25:22.765Z,16.60
2023-05-24T14:28:25.329Z,16.70
2023-05-24T14:31:27.875Z,16.94
2023-05-24T14:34:31.764Z,16.82
2023-05-24T14:37:34.336Z,17.12
2023-05-24T14:40:39.639Z,17.03
2023-05-24T14:43:42.254Z,17.68
2023-05-24T14:46:44.874Z,18.58
2023-05-24T14:49:48.808Z,19.50
2023-05-24T14:52:53.156Z,20.15
2023-05-24T14:55:57.601Z,20.83
2023-05-24T14:59:00.277Z,19.45
2023-05-24T15:02:02.849Z,19.84
2023-05-24T15:05:08.061Z,19.25
2023-05-24T15:08:11.475Z,19.40
2023-05-24T15:11:17.418Z,19.79
2023-05-24T15:14:20.090Z,19.66
2023-05-24T15:17:22.687Z,19.87
2023-05-24T15:20:26.782Z,20.11
2023-05-24T15:23:29.472Z,20.04
2023-05-24T15:26:32.008Z,19.63
2023-05-24T15:29:34.669Z,19.65
2023-05-24T15:32:37.233Z,19.38
2023-05-24T15:35:41.254Z,19.22
2023-05-24T15:38:43.928Z,18.72
2023-05-24T15:41:46.475Z,19.21
2023-05-24T15:44:49.048Z,19.56
2023-05-24T15:47:51.701Z,19.89
2023-05-24T15:51:46.443Z,19.83
2023-05-24T15:54:18.108Z,19.45
2023-05-24T15:57:21.091Z,18.78
2023-05-24T16:00:23.740Z,18.96
2023-05-24T16:03:26.419Z,19.04
2023-05-24T16:06:30.465Z,17.95
2023-05-24T16:09:33.009Z,17.71
2023-05-24T16:12:35.667Z,18.05
2023-05-24T16:15:40.904Z,17.67
2023-05-24T16:18:43.451Z,16.96
2023-05-24T16:21:47.416Z,16.94
2023-05-24T16:24:49.915Z,17.01
2023-05-24T16:27:52.652Z,17.11
2023-05-24T16:30:56.272Z,17.36
2023-05-24T16:33:59.067Z,17.80
2023-05-24T16:37:04.282Z,17.82
2023-05-24T16:40:08.229Z,17.45
2023-05-24T16:43:10.772Z,17.71
2023-05-24T16:46:13.405Z,17.74
2023-05-24T16:49:16.258Z,17.46
2023-05-24T16:52:20.101Z,17.30
2023-05-24T16:55:22.671Z,17.00
2023-05-24T16:58:28.020Z,16.69
2023-05-24T17:01:30.598Z,16.49
2023-05-24T17:04:33.137Z,16.38
2023-05-24T17:07:37.034Z,16.21
2023-05-24T17:10:39.713Z,16.08
2023-05-24T17:13:42.591Z,16.16
2023-05-24T17:16:45.169Z,16.06
2023-05-24T17:19:47.813Z,15.93
2023-05-24T17:22:51.696Z,15.90
2023-05-24T17:25:55.526Z,15.83
2023-05-24T17:28:58.109Z,15.77
2023-05-24T17:32:00.865Z,15.69
2023-05-24T17:35:03.674Z,15.58
2023-05-24T17:38:07.522Z,15.55
2023-05-24T17:41:10.197Z,15.61
2023-05-24T17:44:12.734Z,15.66
2023-05-24T17:47:15.258Z,15.52
2023-05-24T17:50:17.819Z,15.40
2023-05-24T17:53:31.206Z,15.34
2023-05-24T17:56:34.579Z,15.32
2023-05-24T17:59:37.174Z,15.27
2023-05-24T18:02:39.693Z,15.27
2023-05-24T18:05:42.583Z,15.21
2023-05-24T18:08:46.590Z,15.22
2023-05-24T18:11:49.634Z,15.15
2023-05-24T18:14:52.209Z,15.13
2023-05-24T18:17:54.779Z,15.14
2023-05-24T18:20:57.391Z,15.10
2023-05-24T18:24:01.242Z,15.01
2023-05-24T18:27:04.034Z,14.98
2023-05-24T18:30:08.329Z,14.88
2023-05-24T18:33:11.054Z,14.80
2023-05-24T18:36:13.786Z,14.68
2023-05-24T18:39:17.629Z,14.54
2023-05-24T18:42:20.160Z,14.38
2023-05-24T18:45:22.859Z,14.33
2023-05-24T18:48:25.441Z,14.21
2023-05-24T18:51:28.023Z,14.09
2023-05-24T18:54:31.881Z,13.97
2023-05-24T18:57:34.466Z,13.87
2023-05-24T19:00:37.097Z,13.82
2023-05-24T19:03:41.660Z,13.79
2023-05-24T19:06:44.438Z,13.70
2023-05-24T19:09:48.297Z,13.65
2023-05-24T19:12:50.840Z,13.60
2023-05-24T19:15:53.660Z,13.50
2023-05-24T19:18:56.239Z,13.42
2023-05-24T19:21:58.779Z,13.38
